createdAt,value
2019-05-06T00:00:34.166Z,0.9130
2019-05-06T00:02:54.469Z,0.9130
2019-05-06T00:05:14.387Z,0.9127
2019-05-06T00:07:34.034Z,0.9130
2019-05-06T00:09:53.866Z,0.9128
2019-05-06T00:12:14.367Z,0.9130
2019-05-06T00:14:33.956Z,0.9132
2019-05-06T00:16:54.581Z,0.9131
2019-05-06T00:19:13.965Z,0.9128
2019-05-06T00:21:32.434Z,0.9127
2019-05-06T00:23:51.581Z,0.9128
2019-05-06T00:26:10.718Z,0.9127
2019-05-06T00:28:29.127Z,0.9122
2019-05-06T00:30:48.368Z,0.9128
2019-05-06T00:33:08.547Z,0.9128
2019-05-06T00:35:27.792Z,0.9127
2019-05-06T00:37:46.952Z,0.9128
2019-05-06T00:40:06.395Z,0.9127
2019-05-06T00:42:25.604Z,0.9127
2019-05-06T00:44:44.919Z,0.9135
2019-05-06T00:47:04.410Z,0.9128
2019-05-06T00:49:23.915Z,0.9129
2019-05-06T00:51:43.995Z,0.9128
2019-05-06T00:54:04.040Z,0.9128
2019-05-06T00:56:24.336Z,0.9128
2019-05-06T00:58:43.659Z,0.9127
2019-05-06T01:01:04.579Z,0.9127
2019-05-06T01:03:24.107Z,0.9130
2019-05-06T01:05:44.371Z,0.9127
2019-05-06T01:08:04.075Z,0.9128
2019-05-06T01:10:23.829Z,0.9129
2019-05-06T01:12:43.508Z,0.9126
2019-05-06T01:15:03.830Z,0.9125
2019-05-06T01:17:24.355Z,0.9128
2019-05-06T01:19:45.708Z,0.9131
2019-05-06T01:22:05.375Z,0.9130
2019-05-06T01:24:24.103Z,0.9129
2019-05-06T01:26:44.336Z,0.9127
2019-05-06T01:29:03.981Z,0.9131
2019-05-06T01:31:24.713Z,0.9128
2019-05-06T01:33:45.505Z,0.9127
2019-05-06T01:36:04.554Z,0.9122
2019-05-06T01:38:24.215Z,0.9130
2019-05-06T01:40:44.049Z,0.9128
2019-05-06T01:43:03.619Z,0.9130
2019-05-06T01:45:23.665Z,0.9129
2019-05-06T01:47:43.792Z,0.9128
2019-05-06T01:50:04.480Z,0.9130
2019-05-06T01:52:24.165Z,0.9131
2019-05-06T01:54:43.475Z,0.9134
2019-05-06T01:57:04.426Z,0.9127
2019-05-06T01:59:24.620Z,0.9129
2019-05-06T02:01:57.015Z,0.9129
2019-05-06T02:04:07.386Z,0.9130
2019-05-06T02:06:26.708Z,0.9129
2019-05-06T02:08:45.471Z,0.9131
2019-05-06T02:11:04.840Z,0.9130
2019-05-06T02:13:24.371Z,0.9129
2019-05-06T02:15:44.938Z,0.9128
2019-05-06T02:18:04.346Z,0.9129
2019-05-06T02:20:24.606Z,0.9130
2019-05-06T02:22:44.267Z,0.9135
2019-05-06T02:25:04.444Z,0.9129
2019-05-06T02:27:24.775Z,0.9128
2019-05-06T02:29:44.302Z,0.9129
2019-05-06T02:32:17.148Z,0.9129
2019-05-06T02:34:26.834Z,0.9129
2019-05-06T02:36:45.891Z,0.9128
2019-05-06T02:39:05.283Z,0.9127
2019-05-06T02:41:24.730Z,0.9127
2019-05-06T02:43:44.100Z,0.9129
2019-05-06T02:46:04.204Z,0.9127
2019-05-06T02:48:23.617Z,0.9128
2019-05-06T02:50:42.786Z,0.9127
2019-05-06T02:53:02.657Z,0.9126
2019-05-06T02:55:23.573Z,0.9128
2019-05-06T02:57:43.910Z,0.9127
2019-05-06T03:00:05.116Z,0.9126
2019-05-06T03:02:37.977Z,0.9125
2019-05-06T03:04:48.549Z,0.9127
2019-05-06T03:07:07.666Z,0.9125
2019-05-06T03:09:26.461Z,0.9123
2019-05-06T03:11:45.581Z,0.9129
2019-05-06T03:14:04.385Z,0.9126
2019-05-06T03:16:23.951Z,0.9127
2019-05-06T03:18:43.672Z,0.9126
2019-05-06T03:21:03.815Z,0.9127
2019-05-06T03:23:23.921Z,0.9128
2019-05-06T03:25:43.997Z,0.9126
2019-05-06T03:28:04.131Z,0.9127
2019-05-06T03:30:25.467Z,0.9127
2019-05-06T03:33:20.334Z,0.9127
2019-05-06T03:35:27.486Z,0.9128
2019-05-06T03:37:33.661Z,0.9127
2019-05-06T03:39:52.886Z,0.9125
2019-05-06T03:42:15.934Z,0.9125
2019-05-06T03:44:36.204Z,0.9126
2019-05-06T03:46:55.230Z,0.9126
2019-05-06T03:49:14.903Z,0.9130
2019-05-06T03:51:34.612Z,0.9129
2019-05-06T03:53:56.813Z,0.9127
2019-05-06T03:56:19.659Z,0.9127
2019-05-06T03:58:43.286Z,0.9126
2019-05-06T04:01:03.730Z,0.9127
2019-05-06T04:03:42.011Z,0.9126
2019-05-06T04:05:47.474Z,0.9128
2019-05-06T04:08:05.881Z,0.9129
2019-05-06T04:10:25.344Z,0.9128
2019-05-06T04:12:44.823Z,0.9128
2019-05-06T04:15:04.452Z,0.9127
2019-05-06T04:17:23.801Z,0.9127
2019-05-06T04:19:43.676Z,0.9126
2019-05-06T04:22:03.679Z,0.9129
2019-05-06T04:24:23.258Z,0.9129
2019-05-06T04:26:46.045Z,0.9127
2019-05-06T04:29:06.240Z,0.9127
2019-05-06T04:31:25.375Z,0.9125
2019-05-06T04:34:03.536Z,0.9126
2019-05-06T04:36:09.277Z,0.9125
2019-05-06T04:38:27.570Z,0.9123
2019-05-06T04:40:46.931Z,0.9125
2019-05-06T04:43:06.540Z,0.9125
2019-05-06T04:45:25.814Z,0.9126
2019-05-06T04:47:44.265Z,0.9126
2019-05-06T04:50:04.846Z,0.9124
2019-05-06T04:52:26.126Z,0.9123
2019-05-06T04:54:45.466Z,0.9125
2019-05-06T04:57:05.312Z,0.9124
2019-05-06T04:59:24.382Z,0.9123
2019-05-06T05:01:45.513Z,0.9123
2019-05-06T05:04:22.269Z,0.9121
2019-05-06T05:06:29.644Z,0.9122
2019-05-06T05:08:48.729Z,0.9123
2019-05-06T05:11:08.011Z,0.9123
2019-05-06T05:13:27.102Z,0.9123
2019-05-06T05:15:46.610Z,0.9125
2019-05-06T05:18:05.050Z,0.9125
2019-05-06T05:20:37.074Z,0.9123
2019-05-06T05:22:48.686Z,0.9125
2019-05-06T05:25:07.817Z,0.9124
2019-05-06T05:27:26.341Z,0.9125
2019-05-06T05:29:44.758Z,0.9125
2019-05-06T05:32:03.776Z,0.9124
2019-05-06T05:34:36.402Z,0.9124
2019-05-06T05:36:46.355Z,0.9123
2019-05-06T05:39:05.704Z,0.9123
2019-05-06T05:41:24.774Z,0.9124
2019-05-06T05:43:43.175Z,0.9123
2019-05-06T05:46:02.913Z,0.9122
2019-05-06T05:48:23.351Z,0.9122
2019-05-06T05:50:42.558Z,0.9121
2019-05-06T05:53:02.499Z,0.9120
2019-05-06T05:55:22.193Z,0.9119
2019-05-06T05:57:43.103Z,0.9118
2019-05-06T06:00:03.922Z,0.9117
2019-05-06T06:02:23.237Z,0.9116
2019-05-06T06:04:54.210Z,0.7797
2019-05-06T06:07:05.679Z,0.4246
2019-05-06T06:09:25.384Z,0.4243
2019-05-06T06:11:43.990Z,-0.9088
2019-05-06T06:14:03.149Z,-0.5628
2019-05-06T06:16:23.272Z,-0.5625
2019-05-06T06:18:43.102Z,-0.5640
2019-05-06T06:21:17.368Z,-0.5636
2019-05-06T06:23:26.521Z,-0.5845
2019-05-06T06:25:45.500Z,-0.5968
2019-05-06T06:28:04.895Z,-0.5996
2019-05-06T06:30:24.071Z,-0.5987
2019-05-06T06:32:43.141Z,-0.7153
2019-05-06T06:35:10.799Z,-0.7308
2019-05-06T06:37:28.894Z,-0.7299
2019-05-06T06:39:48.661Z,-0.7292
2019-05-06T06:42:06.129Z,-0.7298
2019-05-06T06:44:26.989Z,-0.7319
2019-05-06T06:46:46.030Z,-0.7308
2019-05-06T06:49:07.647Z,-0.7339
2019-05-06T06:51:26.666Z,-0.8003
2019-05-06T06:53:47.769Z,-0.9790
2019-05-06T06:56:12.503Z,-0.9678
2019-05-06T06:58:33.299Z,-0.9661
2019-05-06T07:00:53.347Z,-0.9653
2019-05-06T07:03:12.285Z,-0.9650
2019-05-06T07:05:33.069Z,-0.9648
2019-05-06T07:07:53.125Z,-0.9652
2019-05-06T07:10:12.638Z,-0.9649
2019-05-06T07:12:32.830Z,-0.5131
2019-05-06T07:14:52.474Z,-0.3887
2019-05-06T07:17:13.183Z,0.2308
2019-05-06T07:19:32.772Z,0.3405
2019-05-06T07:21:52.370Z,-0.3280
2019-05-06T07:24:13.045Z,-0.8371
2019-05-06T07:26:31.831Z,-0.8752
2019-05-06T07:28:52.698Z,-0.8553
2019-05-06T07:31:21.802Z,-0.8518
2019-05-06T07:33:36.815Z,-0.8550
2019-05-06T07:35:56.458Z,-0.8595
2019-05-06T07:40:45.015Z,0.2677
2019-05-06T07:45:32.879Z,-0.9468
2019-05-06T07:47:53.194Z,-0.9580
2019-05-06T07:50:13.818Z,-0.9452
2019-05-06T07:52:32.851Z,-0.5526
2019-05-06T07:54:53.609Z,-0.3684
2019-05-06T07:57:13.032Z,-0.8518
2019-05-06T07:59:33.387Z,-0.5105
2019-05-06T08:01:54.083Z,-0.8155
2019-05-06T08:04:13.498Z,0.5941
2019-05-06T08:06:32.617Z,0.6010
2019-05-06T08:08:53.766Z,0.5350
2019-05-06T08:11:13.291Z,-0.9251
2019-05-06T08:13:32.642Z,-0.7071
2019-05-06T08:15:53.042Z,-0.5668
2019-05-06T08:18:12.869Z,-0.4359
2019-05-06T08:20:34.736Z,-0.7252
2019-05-06T08:22:56.294Z,-0.9716
2019-05-06T08:25:16.297Z,-0.9222
2019-05-06T08:27:37.361Z,-0.9627
2019-05-06T08:29:56.743Z,-0.9088
2019-05-06T08:34:47.264Z,0.9293
2019-05-06T08:37:07.273Z,0.2267
2019-05-06T08:39:26.995Z,-0.6157
2019-05-06T08:44:25.027Z,0.6943
2019-05-06T08:46:43.717Z,0.8882
2019-05-06T08:49:05.414Z,0.8881
2019-05-06T08:51:24.502Z,0.8872
2019-05-06T08:53:46.346Z,-0.9726
2019-05-06T08:56:06.069Z,-0.9314
2019-05-06T08:58:26.351Z,-0.1831
2019-05-06T09:03:14.354Z,-0.6030
2019-05-06T09:05:35.045Z,-0.6182
2019-05-06T09:07:54.587Z,-0.8815
2019-05-06T09:10:14.127Z,-0.9662
2019-05-06T09:12:34.884Z,-0.8951
2019-05-06T09:14:53.435Z,-0.9392
2019-05-06T09:17:12.086Z,-0.9367
2019-05-06T09:19:33.187Z,-0.8410
2019-05-06T09:21:57.290Z,-0.9418
2019-05-06T09:26:52.269Z,-0.4331
2019-05-06T09:32:05.032Z,-0.5839
2019-05-06T09:34:28.268Z,-0.7494
2019-05-06T09:36:52.684Z,-0.5783
2019-05-06T09:39:19.284Z,-0.3264
2019-05-06T09:41:37.467Z,-0.3251
2019-05-06T09:43:56.917Z,-0.1767
2019-05-06T09:46:15.965Z,-0.9172
2019-05-06T09:48:34.433Z,-0.7072
2019-05-06T09:50:53.719Z,-0.7972
2019-05-06T09:53:13.763Z,-0.9945
2019-05-06T09:58:12.433Z,-0.9274
2019-05-06T10:00:32.975Z,-0.8070
2019-05-06T10:05:28.576Z,-0.5176
2019-05-06T10:07:52.265Z,-0.8328
2019-05-06T10:10:11.259Z,-0.9067
2019-05-06T10:12:29.696Z,-0.9159
2019-05-06T10:17:31.088Z,-0.9810
2019-05-06T10:19:50.492Z,-0.5598
2019-05-06T10:24:43.177Z,0.6764
2019-05-06T10:27:02.754Z,0.6532
2019-05-06T10:29:27.709Z,-0.0615
2019-05-06T10:31:45.389Z,0.1087
2019-05-06T10:34:03.187Z,0.3040
2019-05-06T10:39:02.445Z,0.3344
2019-05-06T10:41:22.413Z,0.3348
2019-05-06T10:43:43.376Z,0.3353
2019-05-06T10:48:42.448Z,-0.2970
2019-05-06T10:51:03.379Z,-0.2881
2019-05-06T10:53:24.813Z,-0.4995
2019-05-06T10:55:43.343Z,-0.6145
2019-05-06T11:00:36.294Z,-0.7568
2019-05-06T11:05:32.558Z,-0.7606
2019-05-06T11:07:52.518Z,-0.7606
2019-05-06T11:10:23.890Z,-0.7652
2019-05-06T11:12:38.653Z,-0.6475
2019-05-06T11:17:34.100Z,-0.9196
2019-05-06T11:19:56.361Z,-0.8428
2019-05-06T11:22:21.208Z,-0.8416
2019-05-06T11:27:28.070Z,-0.4301
2019-05-06T11:29:37.918Z,-0.2872
2019-05-06T11:31:56.584Z,-0.2924
2019-05-06T11:36:45.400Z,-0.1861
2019-05-06T11:39:04.363Z,-0.3591
2019-05-06T11:41:23.363Z,-0.5923
2019-05-06T11:43:43.083Z,-0.9327
2019-05-06T11:46:02.595Z,0.4309
2019-05-06T11:50:55.510Z,-0.8858
2019-05-06T11:53:13.469Z,-0.8823
2019-05-06T11:55:38.050Z,-0.7441
2019-05-06T11:57:54.381Z,-0.9251
2019-05-06T12:00:12.897Z,0.6512
2019-05-06T12:02:33.021Z,0.4767
2019-05-06T12:04:52.838Z,0.0513
2019-05-06T12:07:15.460Z,0.0511
2019-05-06T12:09:34.604Z,0.0516
2019-05-06T12:11:53.094Z,0.5190
2019-05-06T12:14:12.389Z,0.6808
2019-05-06T12:16:33.169Z,-0.3737
2019-05-06T12:18:55.709Z,-0.9118
2019-05-06T12:21:19.135Z,-0.9939
2019-05-06T12:23:39.005Z,-0.6657
2019-05-06T12:25:57.499Z,-0.8026
2019-05-06T12:28:21.269Z,-0.6310
2019-05-06T12:30:42.709Z,-0.7913
2019-05-06T12:33:03.135Z,-0.7872
2019-05-06T12:35:22.183Z,-0.7876
2019-05-06T12:40:37.239Z,-0.9997
2019-05-06T12:42:58.908Z,-0.9996
2019-05-06T12:45:17.388Z,-0.8617
2019-05-06T13:12:48.929Z,0.0057
2019-05-06T13:15:08.144Z,0.0034
2019-05-06T13:28:57.663Z,-0.9831
2019-05-06T13:38:08.477Z,0.4924
2019-05-06T13:47:19.134Z,-0.8434
2019-05-06T13:49:37.625Z,-0.9530
2019-05-06T14:07:57.798Z,-0.9689
2019-05-06T14:44:39.139Z,0.3723
2019-05-06T14:46:57.622Z,0.0150
2019-05-06T15:21:36.184Z,-0.0972
2019-05-06T15:39:49.409Z,0.6948
2019-05-06T15:45:57.615Z,0.6942
2019-05-06T15:54:08.936Z,0.8661
2019-05-06T16:00:38.107Z,0.8663
2019-05-06T16:08:48.578Z,0.8660
2019-05-06T16:21:07.430Z,0.8665
2019-05-06T16:33:27.601Z,0.8665
2019-05-06T16:49:47.799Z,0.8668
2019-05-06T16:57:58.382Z,0.8666
2019-05-06T17:02:18.786Z,0.8664
2019-05-06T18:30:15.903Z,0.8673
2019-05-06T18:51:50.978Z,0.8673
2019-05-06T19:04:08.095Z,0.8674
2019-05-06T19:24:39.135Z,0.8670
2019-05-06T19:41:28.256Z,0.8675
2019-05-06T19:51:48.874Z,0.8673
2019-05-06T20:02:09.562Z,0.8673
2019-05-06T20:23:48.593Z,0.8673
2019-05-06T20:44:29.257Z,0.8677
2019-05-06T21:00:52.786Z,0.8677
2019-05-06T21:17:29.060Z,0.8677
2019-05-06T21:19:33.124Z,0.8673
2019-05-06T21:24:15.331Z,0.8674
2019-05-06T21:41:25.536Z,0.8960
2019-05-06T21:55:45.859Z,0.7920
2019-05-06T22:12:05.777Z,0.6994
2019-05-06T22:26:35.026Z,0.5990
2019-05-06T22:42:55.831Z,0.7846
2019-05-06T23:07:45.012Z,0.7759
2019-05-06T23:20:05.141Z,0.7743
2019-05-06T23:28:16.362Z,0.7750
